sensor_id;sensor_type;location;lat;lon;timestamp;pressure;altitude;pressure_sealevel;temperature;humidity
45525;BME280;31437;58.350;13.828;2023-02-24T00:00:24;99653.81;;;-0.87;100.00
45525;BME280;31437;58.350;13.828;2023-02-24T00:03:02;99660.69;;;-0.87;100.00
45525;BME280;31437;58.350;13.828;2023-02-24T00:05:31;99651.22;;;-0.87;100.00
45525;BME280;31437;58.350;13.828;2023-02-24T00:07:56;99648.66;;;-0.87;100.00
45525;BME280;31437;58.350;13.828;2023-02-24T00:10:21;99643.50;;;-0.87;100.00
45525;BME280;31437;58.350;13.828;2023-02-24T00:12:47;99635.72;;;-0.85;100.00
45525;BME280;31437;58.350;13.828;2023-02-24T00:15:13;99632.31;;;-0.84;100.00
45525;BME280;31437;58.350;13.828;2023-02-24T00:17:41;99633.19;;;-0.87;100.00
45525;BME280;31437;58.350;13.828;2023-02-24T00:20:10;99628.06;;;-0.87;100.00
45525;BME280;31437;58.350;13.828;2023-02-24T00:22:40;99626.38;;;-0.88;100.00
45525;BME280;31437;58.350;13.828;2023-02-24T00:25:05;99617.75;;;-0.88;100.00
45525;BME280;31437;58.350;13.828;2023-02-24T00:27:31;99606.59;;;-0.87;100.00
45525;BME280;31437;58.350;13.828;2023-02-24T00:29:57;99608.28;;;-0.86;100.00
45525;BME280;31437;58.350;13.828;2023-02-24T00:32:22;99593.69;;;-0.86;100.00
45525;BME280;31437;58.350;13.828;2023-02-24T00:34:47;99598.78;;;-0.83;100.00
45525;BME280;31437;58.350;13.828;2023-02-24T00:37:13;99595.34;;;-0.82;100.00
45525;BME280;31437;58.350;13.828;2023-02-24T00:39:39;99589.34;;;-0.82;100.00
45525;BME280;31437;58.350;13.828;2023-02-24T00:42:06;99585.84;;;-0.80;100.00
45525;BME280;31437;58.350;13.828;2023-02-24T00:46:59;99578.13;;;-0.78;100.00
45525;BME280;31437;58.350;13.828;2023-02-24T00:49:26;99571.22;;;-0.78;100.00
45525;BME280;31437;58.350;13.828;2023-02-24T00:51:51;99565.19;;;-0.77;100.00
45525;BME280;31437;58.350;13.828;2023-02-24T00:54:18;99565.19;;;-0.77;100.00
45525;BME280;31437;58.350;13.828;2023-02-24T00:56:45;99568.66;;;-0.76;100.00
45525;BME280;31437;58.350;13.828;2023-02-24T00:59:11;99571.16;;;-0.75;100.00
45525;BME280;31437;58.350;13.828;2023-02-24T01:01:37;99564.28;;;-0.73;100.00
45525;BME280;31437;58.350;13.828;2023-02-24T01:04:04;99562.56;;;-0.74;100.00
45525;BME280;31437;58.350;13.828;2023-02-24T01:06:29;99545.41;;;-0.75;100.00
45525;BME280;31437;58.350;13.828;2023-02-24T01:08:56;99546.25;;;-0.73;100.00
45525;BME280;31437;58.350;13.828;2023-02-24T01:11:23;99541.94;;;-0.74;100.00
45525;BME280;31437;58.350;13.828;2023-02-24T01:14:07;99541.09;;;-0.73;100.00
45525;BME280;31437;58.350;13.828;2023-02-24T01:16:33;99538.47;;;-0.71;100.00
45525;BME280;31437;58.350;13.828;2023-02-24T01:18:59;99535.06;;;-0.72;100.00
45525;BME280;31437;58.350;13.828;2023-02-24T01:21:24;99521.34;;;-0.74;100.00
45525;BME280;31437;58.350;13.828;2023-02-24T01:23:50;99523.91;;;-0.74;100.00
45525;BME280;31437;58.350;13.828;2023-02-24T01:26:16;99517.09;;;-0.75;100.00
45525;BME280;31437;58.350;13.828;2023-02-24T01:28:41;99515.34;;;-0.74;100.00
45525;BME280;31437;58.350;13.828;2023-02-24T01:31:07;99509.34;;;-0.75;100.00
45525;BME280;31437;58.350;13.828;2023-02-24T01:33:32;99511.94;;;-0.75;100.00
45525;BME280;31437;58.350;13.828;2023-02-24T01:36:08;99501.63;;;-0.75;100.00
45525;BME280;31437;58.350;13.828;2023-02-24T01:38:34;99501.69;;;-0.76;100.00
45525;BME280;31437;58.350;13.828;2023-02-24T01:41:01;99492.22;;;-0.77;100.00
45525;BME280;31437;58.350;13.828;2023-02-24T01:43:29;99491.38;;;-0.78;100.00
45525;BME280;31437;58.350;13.828;2023-02-24T01:45:54;99484.53;;;-0.79;100.00
45525;BME280;31437;58.350;13.828;2023-02-24T01:48:19;99487.13;;;-0.80;100.00
45525;BME280;31437;58.350;13.828;2023-02-24T01:50:45;99477.72;;;-0.81;100.00
45525;BME280;31437;58.350;13.828;2023-02-24T01:53:11;99477.75;;;-0.83;100.00
45525;BME280;31437;58.350;13.828;2023-02-24T01:55:39;99475.16;;;-0.83;100.00
45525;BME280;31437;58.350;13.828;2023-02-24T01:58:11;99463.19;;;-0.85;100.00
45525;BME280;31437;58.350;13.828;2023-02-24T02:00:39;99448.69;;;-0.88;100.00
45525;BME280;31437;58.350;13.828;2023-02-24T02:03:14;99453.00;;;-0.90;100.00
45525;BME280;31437;58.350;13.828;2023-02-24T02:05:42;99441.00;;;-0.91;100.00
45525;BME280;31437;58.350;13.828;2023-02-24T02:08:12;99434.19;;;-0.94;100.00
45525;BME280;31437;58.350;13.828;2023-02-24T02:10:38;99427.38;;;-0.96;100.00
45525;BME280;31437;58.350;13.828;2023-02-24T02:13:04;99420.53;;;-0.99;100.00
45525;BME280;31437;58.350;13.828;2023-02-24T02:15:31;99411.16;;;-1.01;100.00
45525;BME280;31437;58.350;13.828;2023-02-24T02:30:46;99365.84;;;-1.10;100.00
45525;BME280;31437;58.350;13.828;2023-02-24T02:35:59;99351.38;;;-1.16;100.00
45525;BME280;31437;58.350;13.828;2023-02-24T02:43:56;99337.91;;;-1.28;100.00
45525;BME280;31437;58.350;13.828;2023-02-24T02:49:00;99323.38;;;-1.32;100.00
45525;BME280;31437;58.350;13.828;2023-02-24T02:51:28;99321.75;;;-1.35;100.00
45525;BME280;31437;58.350;13.828;2023-02-24T02:54:40;99313.22;;;-1.39;100.00
45525;BME280;31437;58.350;13.828;2023-02-24T02:56:47;99305.56;;;-1.42;100.00
45525;BME280;31437;58.350;13.828;2023-02-24T02:59:15;99305.59;;;-1.43;100.00
45525;BME280;31437;58.350;13.828;2023-02-24T03:01:46;99303.88;;;-1.44;100.00
45525;BME280;31437;58.350;13.828;2023-02-24T03:04:13;99303.03;;;-1.43;100.00
45525;BME280;31437;58.350;13.828;2023-02-24T03:06:52;99298.72;;;-1.43;100.00
45525;BME280;31437;58.350;13.828;2023-02-24T03:09:22;99298.72;;;-1.43;100.00
45525;BME280;31437;58.350;13.828;2023-02-24T03:11:50;99295.25;;;-1.42;100.00
45525;BME280;31437;58.350;13.828;2023-02-24T03:14:18;99286.69;;;-1.41;100.00
45525;BME280;31437;58.350;13.828;2023-02-24T03:16:46;99289.22;;;-1.39;100.00
45525;BME280;31437;58.350;13.828;2023-02-24T03:19:17;99288.34;;;-1.38;100.00
45525;BME280;31437;58.350;13.828;2023-02-24T03:21:45;99280.59;;;-1.37;100.00
45525;BME280;31437;58.350;13.828;2023-02-24T03:24:15;99281.41;;;-1.34;100.00
45525;BME280;31437;58.350;13.828;2023-02-24T03:26:52;99281.38;;;-1.33;100.00
45525;BME280;31437;58.350;13.828;2023-02-24T03:29:24;99277.88;;;-1.30;100.00
45525;BME280;31437;58.350;13.828;2023-02-24T03:34:42;99266.66;;;-1.26;100.00
45525;BME280;31437;58.350;13.828;2023-02-24T03:37:12;99266.63;;;-1.25;100.00
45525;BME280;31437;58.350;13.828;2023-02-24T03:39:37;99267.44;;;-1.23;100.00
45525;BME280;31437;58.350;13.828;2023-02-24T03:42:04;99260.56;;;-1.22;100.00
45525;BME280;31437;58.350;13.828;2023-02-24T03:44:31;99259.69;;;-1.21;100.00
45525;BME280;31437;58.350;13.828;2023-02-24T03:46:56;99252.78;;;-1.19;100.00
45525;BME280;31437;58.350;13.828;2023-02-24T03:49:22;99257.03;;;-1.18;100.00
45525;BME280;31437;58.350;13.828;2023-02-24T04:00:05;99243.19;;;-1.12;100.00
45525;BME280;31437;58.350;13.828;2023-02-24T04:02:48;99236.38;;;-1.13;100.00
45525;BME280;31437;58.350;13.828;2023-02-24T04:05:16;99231.22;;;-1.13;100.00
45525;BME280;31437;58.350;13.828;2023-02-24T04:10:19;99227.72;;;-1.11;100.00
45525;BME280;31437;58.350;13.828;2023-02-24T04:12:51;99216.53;;;-1.10;100.00
45525;BME280;31437;58.350;13.828;2023-02-24T04:18:07;99207.91;;;-1.06;100.00
45525;BME280;31437;58.350;13.828;2023-02-24T04:20:36;99199.22;;;-1.03;100.00
45525;BME280;31437;58.350;13.828;2023-02-24T04:23:07;99200.03;;;-1.01;100.00
45525;BME280;31437;58.350;13.828;2023-02-24T04:25:35;99190.56;;;-0.99;100.00
45525;BME280;31437;58.350;13.828;2023-02-24T04:28:02;99199.09;;;-0.97;100.00
45525;BME280;31437;58.350;13.828;2023-02-24T04:30:29;99193.91;;;-0.96;100.00
45525;BME280;31437;58.350;13.828;2023-02-24T04:32:56;99192.19;;;-0.95;100.00
45525;BME280;31437;58.350;13.828;2023-02-24T04:35:21;99193.00;;;-0.93;100.00
45525;BME280;31437;58.350;13.828;2023-02-24T04:37:47;99186.13;;;-0.93;100.00
45525;BME280;31437;58.350;13.828;2023-02-24T04:40:14;99198.09;;;-0.92;100.00
45525;BME280;31437;58.350;13.828;2023-02-24T04:42:43;99202.38;;;-0.90;100.00
45525;BME280;31437;58.350;13.828;2023-02-24T04:45:13;99206.69;;;-0.91;100.00
45525;BME280;31437;58.350;13.828;2023-02-24T04:47:40;99209.22;;;-0.89;100.00
45525;BME280;31437;58.350;13.828;2023-02-24T04:50:07;99216.06;;;-0.88;100.00
45525;BME280;31437;58.350;13.828;2023-02-24T04:52:34;99213.44;;;-0.87;100.00
45525;BME280;31437;58.350;13.828;2023-02-24T04:55:00;99212.63;;;-0.87;100.00
45525;BME280;31437;58.350;13.828;2023-02-24T04:57:25;99209.97;;;-0.86;100.00
45525;BME280;31437;58.350;13.828;2023-02-24T04:59:50;99210.81;;;-0.85;100.00
45525;BME280;31437;58.350;13.828;2023-02-24T05:02:18;99206.56;;;-0.85;100.00
45525;BME280;31437;58.350;13.828;2023-02-24T05:04:44;99201.34;;;-0.83;100.00
45525;BME280;31437;58.350;13.828;2023-02-24T05:07:13;99199.63;;;-0.83;100.00
45525;BME280;31437;58.350;13.828;2023-02-24T05:09:40;99198.75;;;-0.82;100.00
45525;BME280;31437;58.350;13.828;2023-02-24T05:12:05;99192.75;;;-0.82;100.00
45525;BME280;31437;58.350;13.828;2023-02-24T05:14:30;99190.19;;;-0.82;100.00
45525;BME280;31437;58.350;13.828;2023-02-24T05:19:31;99185.91;;;-0.83;100.00
45525;BME280;31437;58.350;13.828;2023-02-24T05:22:14;99179.00;;;-0.83;100.00
45525;BME280;31437;58.350;13.828;2023-02-24T05:24:41;99173.84;;;-0.81;100.00
45525;BME280;31437;58.350;13.828;2023-02-24T05:29:42;99169.53;;;-0.81;100.00
45525;BME280;31437;58.350;13.828;2023-02-24T05:32:08;99164.38;;;-0.81;100.00
45525;BME280;31437;58.350;13.828;2023-02-24T05:34:34;99160.91;;;-0.80;100.00
45525;BME280;31437;58.350;13.828;2023-02-24T05:37:01;99152.31;;;-0.79;100.00
45525;BME280;31437;58.350;13.828;2023-02-24T05:39:35;99153.19;;;-0.80;100.00
45525;BME280;31437;58.350;13.828;2023-02-24T05:42:01;99154.91;;;-0.79;100.00
45525;BME280;31437;58.350;13.828;2023-02-24T05:44:31;99148.03;;;-0.80;100.00
45525;BME280;31437;58.350;13.828;2023-02-24T05:46:57;99142.03;;;-0.79;100.00
45525;BME280;31437;58.350;13.828;2023-02-24T05:49:24;99135.13;;;-0.78;100.00
45525;BME280;31437;58.350;13.828;2023-02-24T05:51:52;99132.56;;;-0.78;100.00
45525;BME280;31437;58.350;13.828;2023-02-24T05:54:21;99136.88;;;-0.79;100.00
45525;BME280;31437;58.350;13.828;2023-02-24T05:56:50;99131.72;;;-0.79;100.00
45525;BME280;31437;58.350;13.828;2023-02-24T05:59:18;99117.09;;;-0.78;100.00
45525;BME280;31437;58.350;13.828;2023-02-24T06:01:45;99123.16;;;-0.79;100.00
45525;BME280;31437;58.350;13.828;2023-02-24T06:04:11;99119.72;;;-0.80;100.00
45525;BME280;31437;58.350;13.828;2023-02-24T06:06:45;99118.09;;;-0.82;100.00
45525;BME280;31437;58.350;13.828;2023-02-24T06:09:11;99124.06;;;-0.82;100.00
45525;BME280;31437;58.350;13.828;2023-02-24T06:11:38;99114.63;;;-0.83;100.00
45525;BME280;31437;58.350;13.828;2023-02-24T06:14:04;99108.66;;;-0.83;100.00
45525;BME280;31437;58.350;13.828;2023-02-24T06:16:34;99099.19;;;-0.83;100.00
45525;BME280;31437;58.350;13.828;2023-02-24T06:19:01;99099.16;;;-0.81;100.00
45525;BME280;31437;58.350;13.828;2023-02-24T06:21:26;99099.16;;;-0.81;100.00
45525;BME280;31437;58.350;13.828;2023-02-24T06:23:57;99100.91;;;-0.82;100.00
45525;BME280;31437;58.350;13.828;2023-02-24T06:26:23;99097.47;;;-0.82;100.00
45525;BME280;31437;58.350;13.828;2023-02-24T06:28:51;99097.44;;;-0.81;100.00
45525;BME280;31437;58.350;13.828;2023-02-24T06:31:19;99092.28;;;-0.81;100.00
45525;BME280;31437;58.350;13.828;2023-02-24T06:33:45;99087.09;;;-0.79;100.00
45525;BME280;31437;58.350;13.828;2023-02-24T06:36:10;99092.19;;;-0.78;100.00
45525;BME280;31437;58.350;13.828;2023-02-24T06:38:38;99088.72;;;-0.77;100.00
45525;BME280;31437;58.350;13.828;2023-02-24T06:41:04;99089.53;;;-0.75;100.00
45525;BME280;31437;58.350;13.828;2023-02-24T06:43:39;99086.06;;;-0.74;100.00
45525;BME280;31437;58.350;13.828;2023-02-24T06:46:08;99086.88;;;-0.72;100.00
45525;BME280;31437;58.350;13.828;2023-02-24T06:48:34;99081.72;;;-0.70;100.00
45525;BME280;31437;58.350;13.828;2023-02-24T06:51:08;99079.06;;;-0.69;100.00
45525;BME280;31437;58.350;13.828;2023-02-24T06:53:34;99076.47;;;-0.67;100.00
45525;BME280;31437;58.350;13.828;2023-02-24T06:56:04;99071.25;;;-0.65;100.00
45525;BME280;31437;58.350;13.828;2023-02-24T06:58:31;99069.53;;;-0.65;100.00
45525;BME280;31437;58.350;13.828;2023-02-24T07:00:56;99071.19;;;-0.62;100.00
45525;BME280;31437;58.350;13.828;2023-02-24T07:03:28;99068.53;;;-0.59;100.00
45525;BME280;31437;58.350;13.828;2023-02-24T07:06:25;99066.81;;;-0.59;100.00
45525;BME280;31437;58.350;13.828;2023-02-24T07:08:53;99061.63;;;-0.57;100.00
45525;BME280;31437;58.350;13.828;2023-02-24T07:11:19;99064.09;;;-0.54;100.00
45525;BME280;31437;58.350;13.828;2023-02-24T07:13:48;99065.75;;;-0.52;100.00
45525;BME280;31437;58.350;13.828;2023-02-24T07:16:14;99057.13;;;-0.51;100.00
45525;BME280;31437;58.350;13.828;2023-02-24T07:18:40;99063.06;;;-0.47;100.00
45525;BME280;31437;58.350;13.828;2023-02-24T07:21:07;99053.53;;;-0.43;100.00
45525;BME280;31437;58.350;13.828;2023-02-24T07:23:37;99050.88;;;-0.42;100.00
45525;BME280;31437;58.350;13.828;2023-02-24T07:26:13;99059.38;;;-0.38;100.00
45525;BME280;31437;58.350;13.828;2023-02-24T07:28:41;99060.19;;;-0.36;100.00
45525;BME280;31437;58.350;13.828;2023-02-24T07:31:07;99062.66;;;-0.32;100.00
45525;BME280;31437;58.350;13.828;2023-02-24T07:33:37;99055.59;;;-0.27;100.00
45525;BME280;31437;58.350;13.828;2023-02-24T07:36:05;99054.66;;;-0.22;100.00
45525;BME280;31437;58.350;13.828;2023-02-24T07:38:34;99065.72;;;-0.19;100.00
45525;BME280;31437;58.350;13.828;2023-02-24T07:41:00;99056.16;;;-0.15;100.00
45525;BME280;31437;58.350;13.828;2023-02-24T07:43:25;99058.56;;;-0.09;100.00
45525;BME280;31437;58.350;13.828;2023-02-24T07:45:51;99056.69;;;-0.04;100.00
45525;BME280;31437;58.350;13.828;2023-02-24T07:48:17;99052.34;;;-0.02;100.00
45525;BME280;31437;58.350;13.828;2023-02-24T07:50:42;99048.78;;;0.02;100.00
45525;BME280;31437;58.350;13.828;2023-02-24T07:53:07;99052.00;;;0.09;100.00
45525;BME280;31437;58.350;13.828;2023-02-24T07:58:09;99040.47;;;0.20;100.00
45525;BME280;31437;58.350;13.828;2023-02-24T08:00:34;99036.88;;;0.26;100.00
45525;BME280;31437;58.350;13.828;2023-02-24T08:03:14;99040.22;;;0.30;100.00
45525;BME280;31437;58.350;13.828;2023-02-24T08:05:41;99040.97;;;0.33;100.00
45525;BME280;31437;58.350;13.828;2023-02-24T08:08:07;99035.66;;;0.38;100.00
45525;BME280;31437;58.350;13.828;2023-02-24T08:10:33;99033.84;;;0.41;100.00
45525;BME280;31437;58.350;13.828;2023-02-24T08:13:01;99025.31;;;0.39;100.00
45525;BME280;31437;58.350;13.828;2023-02-24T08:15:28;99013.22;;;0.41;100.00
45525;BME280;31437;58.350;13.828;2023-02-24T08:17:58;99015.72;;;0.43;100.00
45525;BME280;31437;58.350;13.828;2023-02-24T08:20:24;99005.50;;;0.40;100.00
45525;BME280;31437;58.350;13.828;2023-02-24T08:22:50;98997.06;;;0.35;100.00
45525;BME280;31437;58.350;13.828;2023-02-24T08:25:17;98988.44;;;0.36;100.00
45525;BME280;31437;58.350;13.828;2023-02-24T08:27:47;98980.94;;;0.28;100.00
45525;BME280;31437;58.350;13.828;2023-02-24T08:30:23;98977.44;;;0.29;100.00
45525;BME280;31437;58.350;13.828;2023-02-24T08:32:52;98964.53;;;0.31;100.00
45525;BME280;31437;58.350;13.828;2023-02-24T08:35:28;98963.53;;;0.35;100.00
45525;BME280;31437;58.350;13.828;2023-02-24T08:38:18;98961.00;;;0.33;100.00
45525;BME280;31437;58.350;13.828;2023-02-24T08:40:49;98950.59;;;0.36;100.00
45525;BME280;31437;58.350;13.828;2023-02-24T08:45:49;98943.38;;;0.46;100.00
45525;BME280;31437;58.350;13.828;2023-02-24T08:48:16;98937.28;;;0.49;100.00
45525;BME280;31437;58.350;13.828;2023-02-24T08:50:58;98932.00;;;0.52;100.00
45525;BME280;31437;58.350;13.828;2023-02-24T08:53:24;98930.28;;;0.52;100.00
45525;BME280;31437;58.350;13.828;2023-02-24T08:55:55;98919.75;;;0.58;100.00
45525;BME280;31437;58.350;13.828;2023-02-24T08:58:21;98911.97;;;0.60;100.00
45525;BME280;31437;58.350;13.828;2023-02-24T09:00:57;98914.47;;;0.61;100.00
45525;BME280;31437;58.350;13.828;2023-02-24T09:03:24;98904.13;;;0.63;100.00
45525;BME280;31437;58.350;13.828;2023-02-24T09:06:05;98897.22;;;0.63;100.00
45525;BME280;31437;58.350;13.828;2023-02-24T09:08:33;98889.31;;;0.68;100.00
45525;BME280;31437;58.350;13.828;2023-02-24T09:11:03;98886.53;;;0.74;100.00
45525;BME280;31437;58.350;13.828;2023-02-24T09:13:38;98885.41;;;0.81;100.00
45525;BME280;31437;58.350;13.828;2023-02-24T09:16:17;98877.56;;;0.84;100.00
45525;BME280;31437;58.350;13.828;2023-02-24T09:18:42;98876.50;;;0.90;100.00
45525;BME280;31437;58.350;13.828;2023-02-24T09:21:13;98872.06;;;0.94;100.00
45525;BME280;31437;58.350;13.828;2023-02-24T09:23:57;98866.88;;;0.94;100.00
45525;BME280;31437;58.350;13.828;2023-02-24T09:26:24;98859.09;;;0.95;100.00
45525;BME280;31437;58.350;13.828;2023-02-24T09:28:49;98853.47;;;0.84;100.00
45525;BME280;31437;58.350;13.828;2023-02-24T09:31:19;98841.63;;;0.78;100.00
45525;BME280;31437;58.350;13.828;2023-02-24T09:33:47;98839.22;;;0.74;100.00
45525;BME280;31437;58.350;13.828;2023-02-24T09:36:18;98830.72;;;0.70;100.00
45525;BME280;31437;58.350;13.828;2023-02-24T09:38:45;98824.78;;;0.68;100.00
45525;BME280;31437;58.350;13.828;2023-02-24T09:41:28;98818.22;;;0.59;100.00
45525;BME280;31437;58.350;13.828;2023-02-24T09:44:11;98818.03;;;0.64;100.00
45525;BME280;31437;58.350;13.828;2023-02-24T09:49:43;98809.00;;;0.52;100.00
45525;BME280;31437;58.350;13.828;2023-02-24T09:52:17;98802.94;;;0.53;100.00
45525;BME280;31437;58.350;13.828;2023-02-24T09:54:46;98799.09;;;0.65;100.00
45525;BME280;31437;58.350;13.828;2023-02-24T09:58:34;98789.06;;;0.56;100.00
45525;BME280;31437;58.350;13.828;2023-02-24T10:03:56;98786.22;;;0.63;100.00
45525;BME280;31437;58.350;13.828;2023-02-24T10:09:02;98782.44;;;0.74;100.00
45525;BME280;31437;58.350;13.828;2023-02-24T10:11:40;98774.38;;;0.81;100.00
45525;BME280;31437;58.350;13.828;2023-02-24T10:14:17;98774.00;;;0.92;100.00
45525;BME280;31437;58.350;13.828;2023-02-24T10:16:44;98773.81;;;0.97;100.00
45525;BME280;31437;58.350;13.828;2023-02-24T10:19:24;98780.25;;;1.08;100.00
45525;BME280;31437;58.350;13.828;2023-02-24T10:21:58;98776.00;;;1.07;100.00
45525;BME280;31437;58.350;13.828;2023-02-24T10:24:46;98765.44;;;1.13;100.00
45525;BME280;31437;58.350;13.828;2023-02-24T10:27:15;98752.09;;;1.02;100.00
45525;BME280;31437;58.350;13.828;2023-02-24T10:32:55;98739.69;;;1.12;100.00
45525;BME280;31437;58.350;13.828;2023-02-24T10:35:25;98732.66;;;1.16;100.00
45525;BME280;31437;58.350;13.828;2023-02-24T10:37:53;98741.66;;;1.27;100.00
45525;BME280;31437;58.350;13.828;2023-02-24T10:40:29;98735.41;;;1.33;100.00
45525;BME280;31437;58.350;13.828;2023-02-24T10:43:09;98726.91;;;1.29;100.00
45525;BME280;31437;58.350;13.828;2023-02-24T10:45:38;98719.66;;;1.17;100.00
45525;BME280;31437;58.350;13.828;2023-02-24T10:48:09;98691.38;;;0.92;100.00
45525;BME280;31437;58.350;13.828;2023-02-24T10:50:41;98706.50;;;1.01;100.00
45525;BME280;31437;58.350;13.828;2023-02-24T10:53:11;98695.88;;;0.87;100.00
45525;BME280;31437;58.350;13.828;2023-02-24T10:55:50;98689.38;;;0.77;100.00
45525;BME280;31437;58.350;13.828;2023-02-24T10:58:30;98678.78;;;0.61;100.00
45525;BME280;31437;58.350;13.828;2023-02-24T11:03:38;98681.94;;;0.69;100.00
45525;BME280;31437;58.350;13.828;2023-02-24T11:06:22;98676.75;;;0.69;100.00
45525;BME280;31437;58.350;13.828;2023-02-24T11:15:03;98682.03;;;0.66;100.00
45525;BME280;31437;58.350;13.828;2023-02-24T11:20:20;98685.06;;;0.77;100.00
45525;BME280;31437;58.350;13.828;2023-02-24T11:22:47;98672.44;;;0.70;100.00
45525;BME280;31437;58.350;13.828;2023-02-24T11:25:18;98680.97;;;0.72;100.00
45525;BME280;31437;58.350;13.828;2023-02-24T11:27:45;98675.13;;;0.66;100.00
45525;BME280;31437;58.350;13.828;2023-02-24T11:32:53;98682.88;;;0.66;100.00
45525;BME280;31437;58.350;13.828;2023-02-24T11:35:31;98678.75;;;0.62;100.00
45525;BME280;31437;58.350;13.828;2023-02-24T11:38:23;98681.47;;;0.58;100.00
45525;BME280;31437;58.350;13.828;2023-02-24T11:40:57;98673.97;;;0.52;100.00
45525;BME280;31437;58.350;13.828;2023-02-24T11:43:24;98672.34;;;0.49;100.00
45525;BME280;31437;58.350;13.828;2023-02-24T11:46:04;98683.56;;;0.48;100.00
45525;BME280;31437;58.350;13.828;2023-02-24T11:48:32;98675.88;;;0.47;100.00
45525;BME280;31437;58.350;13.828;2023-02-24T11:51:16;98677.47;;;0.51;100.00
45525;BME280;31437;58.350;13.828;2023-02-24T11:56:16;98683.72;;;0.43;100.00
45525;BME280;31437;58.350;13.828;2023-02-24T11:58:55;98688.66;;;0.50;100.00
45525;BME280;31437;58.350;13.828;2023-02-24T12:01:31;98674.91;;;0.49;100.00
45525;BME280;31437;58.350;13.828;2023-02-24T12:04:09;98683.63;;;0.47;100.00
45525;BME280;31437;58.350;13.828;2023-02-24T12:06:51;98681.09;;;0.45;100.00
45525;BME280;31437;58.350;13.828;2023-02-24T12:09:21;98682.16;;;0.39;100.00
45525;BME280;31437;58.350;13.828;2023-02-24T12:16:47;98683.22;;;0.34;100.00
45525;BME280;31437;58.350;13.828;2023-02-24T12:19:34;98689.31;;;0.33;100.00
45525;BME280;31437;58.350;13.828;2023-02-24T12:22:06;98692.59;;;0.36;100.00
45525;BME280;31437;58.350;13.828;2023-02-24T12:24:35;98693.56;;;0.34;100.00
45525;BME280;31437;58.350;13.828;2023-02-24T12:37:31;98695.97;;;0.15;100.00
45525;BME280;31437;58.350;13.828;2023-02-24T12:44:59;98700.34;;;0.11;100.00
45525;BME280;31437;58.350;13.828;2023-02-24T12:47:29;98695.28;;;0.10;100.00
45525;BME280;31437;58.350;13.828;2023-02-24T12:50:12;98701.88;;;0.17;100.00
45525;BME280;31437;58.350;13.828;2023-02-24T12:52:48;98708.06;;;0.13;100.00
45525;BME280;31437;58.350;13.828;2023-02-24T12:56:00;98701.16;;;0.13;100.00
45525;BME280;31437;58.350;13.828;2023-02-24T12:58:15;98707.34;;;0.09;100.00
45525;BME280;31437;58.350;13.828;2023-02-24T13:05:44;98704.09;;;0.03;100.00
45525;BME280;31437;58.350;13.828;2023-02-24T13:08:22;98705.13;;;-0.02;100.00
45525;BME280;31437;58.350;13.828;2023-02-24T13:13:43;98710.59;;;-0.11;100.00
45525;BME280;31437;58.350;13.828;2023-02-24T13:16:12;98714.16;;;-0.15;100.00
45525;BME280;31437;58.350;13.828;2023-02-24T13:18:38;98717.69;;;-0.17;100.00
45525;BME280;31437;58.350;13.828;2023-02-24T13:23:39;98723.69;;;-0.17;100.00
45525;BME280;31437;58.350;13.828;2023-02-24T13:26:05;98727.22;;;-0.19;100.00
45525;BME280;31437;58.350;13.828;2023-02-24T13:28:32;98724.53;;;-0.16;100.00
45525;BME280;31437;58.350;13.828;2023-02-24T13:31:01;98727.16;;;-0.18;100.00
45525;BME280;31437;58.350;13.828;2023-02-24T13:33:28;98736.69;;;-0.20;100.00
45525;BME280;31437;58.350;13.828;2023-02-24T13:43:50;98743.19;;;-0.35;100.00
45525;BME280;31437;58.350;13.828;2023-02-24T13:46:19;98733.72;;;-0.34;100.00
45525;BME280;31437;58.350;13.828;2023-02-24T13:52:06;98733.22;;;-0.46;100.00
45525;BME280;31437;58.350;13.828;2023-02-24T13:56:56;98754.03;;;-0.52;100.00
45525;BME280;31437;58.350;13.828;2023-02-24T14:04:37;98762.00;;;-0.59;100.00
45525;BME280;31437;58.350;13.828;2023-02-24T14:07:04;98757.72;;;-0.59;100.00
45525;BME280;31437;58.350;13.828;2023-02-24T14:09:34;98758.53;;;-0.58;100.00
45525;BME280;31437;58.350;13.828;2023-02-24T14:14:42;98782.75;;;-0.64;100.00
45525;BME280;31437;58.350;13.828;2023-02-24T14:17:22;98775.16;;;-0.69;100.00
45525;BME280;31437;58.350;13.828;2023-02-24T14:19:52;98798.41;;;-0.70;100.00
45525;BME280;31437;58.350;13.828;2023-02-24T14:22:18;98786.47;;;-0.73;100.00
45525;BME280;31437;58.350;13.828;2023-02-24T14:24:43;98783.13;;;-0.76;100.00
45525;BME280;31437;58.350;13.828;2023-02-24T14:27:14;98795.22;;;-0.78;100.00
45525;BME280;31437;58.350;13.828;2023-02-24T14:29:43;98785.75;;;-0.78;100.00
45525;BME280;31437;58.350;13.828;2023-02-24T14:32:17;98801.25;;;-0.79;100.00
45525;BME280;31437;58.350;13.828;2023-02-24T14:34:44;98801.28;;;-0.81;100.00
45525;BME280;31437;58.350;13.828;2023-02-24T14:37:10;98802.22;;;-0.83;100.00
45525;BME280;31437;58.350;13.828;2023-02-24T14:39:40;98815.94;;;-0.83;100.00
45525;BME280;31437;58.350;13.828;2023-02-24T14:42:13;98811.78;;;-0.87;100.00
45525;BME280;31437;58.350;13.828;2023-02-24T14:44:44;98810.00;;;-0.85;100.00
45525;BME280;31437;58.350;13.828;2023-02-24T14:47:10;98824.75;;;-0.90;100.00
45525;BME280;31437;58.350;13.828;2023-02-24T14:49:38;98828.22;;;-0.91;100.00
45525;BME280;31437;58.350;13.828;2023-02-24T14:54:38;98836.88;;;-0.94;100.00
45525;BME280;31437;58.350;13.828;2023-02-24T14:57:10;98852.25;;;-0.92;100.00
45525;BME280;31437;58.350;13.828;2023-02-24T14:59:37;98851.47;;;-0.94;100.00
45525;BME280;31437;58.350;13.828;2023-02-24T15:02:04;98855.81;;;-0.96;100.00
45525;BME280;31437;58.350;13.828;2023-02-24T15:04:37;98860.13;;;-0.97;100.00
45525;BME280;31437;58.350;13.828;2023-02-24T15:07:11;98855.06;;;-1.00;100.00
45525;BME280;31437;58.350;13.828;2023-02-24T15:09:41;98858.56;;;-1.02;100.00
45525;BME280;31437;58.350;13.828;2023-02-24T15:12:19;98868.06;;;-1.04;100.00